sensor_id;sensor_type;location;lat;lon;timestamp;P1;durP1;ratioP1;P2;durP2;ratioP2
43248;SDS011;29216;51.248;6.808;2023-04-25T00:02:25;13.80;;;4.68;;
43248;SDS011;29216;51.248;6.808;2023-04-25T00:04:53;10.15;;;4.60;;
43248;SDS011;29216;51.248;6.808;2023-04-25T00:07:19;17.30;;;5.60;;
43248;SDS011;29216;51.248;6.808;2023-04-25T00:09:45;16.58;;;5.70;;
43248;SDS011;29216;51.248;6.808;2023-04-25T00:12:11;11.90;;;4.63;;
43248;SDS011;29216;51.248;6.808;2023-04-25T00:14:40;17.10;;;4.95;;
43248;SDS011;29216;51.248;6.808;2023-04-25T00:17:06;15.82;;;5.13;;
43248;SDS011;29216;51.248;6.808;2023-04-25T00:19:32;11.35;;;4.75;;
43248;SDS011;29216;51.248;6.808;2023-04-25T00:21:59;14.90;;;4.47;;
43248;SDS011;29216;51.248;6.808;2023-04-25T00:24:25;12.98;;;4.70;;
43248;SDS011;29216;51.248;6.808;2023-04-25T00:26:51;14.75;;;4.50;;
43248;SDS011;29216;51.248;6.808;2023-04-25T00:29:17;14.02;;;5.07;;
43248;SDS011;29216;51.248;6.808;2023-04-25T00:31:43;19.80;;;5.57;;
43248;SDS011;29216;51.248;6.808;2023-04-25T00:34:09;11.50;;;3.92;;
43248;SDS011;29216;51.248;6.808;2023-04-25T00:36:35;12.90;;;3.95;;
43248;SDS011;29216;51.248;6.808;2023-04-25T00:39:01;15.10;;;4.45;;
43248;SDS011;29216;51.248;6.808;2023-04-25T00:41:29;12.93;;;4.28;;
43248;SDS011;29216;51.248;6.808;2023-04-25T00:43:58;12.50;;;4.18;;
43248;SDS011;29216;51.248;6.808;2023-04-25T00:46:24;15.80;;;4.55;;
43248;SDS011;29216;51.248;6.808;2023-04-25T00:48:50;9.82;;;4.47;;
43248;SDS011;29216;51.248;6.808;2023-04-25T00:51:19;10.73;;;3.95;;
43248;SDS011;29216;51.248;6.808;2023-04-25T00:53:45;14.80;;;4.85;;
43248;SDS011;29216;51.248;6.808;2023-04-25T00:56:12;11.75;;;4.22;;
43248;SDS011;29216;51.248;6.808;2023-04-25T00:58:38;13.27;;;4.40;;
43248;SDS011;29216;51.248;6.808;2023-04-25T01:01:04;12.10;;;3.85;;
43248;SDS011;29216;51.248;6.808;2023-04-25T01:03:32;12.70;;;4.65;;
43248;SDS011;29216;51.248;6.808;2023-04-25T01:06:00;11.27;;;4.43;;
43248;SDS011;29216;51.248;6.808;2023-04-25T01:08:26;10.07;;;4.75;;
43248;SDS011;29216;51.248;6.808;2023-04-25T01:10:52;11.07;;;4.75;;
43248;SDS011;29216;51.248;6.808;2023-04-25T01:13:18;14.90;;;4.40;;
43248;SDS011;29216;51.248;6.808;2023-04-25T01:15:45;13.77;;;4.05;;
43248;SDS011;29216;51.248;6.808;2023-04-25T01:18:11;12.82;;;4.65;;
43248;SDS011;29216;51.248;6.808;2023-04-25T01:20:37;9.70;;;3.80;;
43248;SDS011;29216;51.248;6.808;2023-04-25T01:23:04;12.45;;;4.22;;
43248;SDS011;29216;51.248;6.808;2023-04-25T01:25:30;17.20;;;4.72;;
43248;SDS011;29216;51.248;6.808;2023-04-25T01:27:57;11.55;;;4.25;;
43248;SDS011;29216;51.248;6.808;2023-04-25T01:30:24;16.67;;;4.60;;
43248;SDS011;29216;51.248;6.808;2023-04-25T01:32:51;10.85;;;4.10;;
43248;SDS011;29216;51.248;6.808;2023-04-25T01:35:18;9.48;;;3.88;;
43248;SDS011;29216;51.248;6.808;2023-04-25T01:37:44;10.82;;;4.97;;
43248;SDS011;29216;51.248;6.808;2023-04-25T01:40:11;14.10;;;4.35;;
43248;SDS011;29216;51.248;6.808;2023-04-25T01:42:39;10.60;;;4.50;;
43248;SDS011;29216;51.248;6.808;2023-04-25T01:45:05;13.25;;;4.68;;
43248;SDS011;29216;51.248;6.808;2023-04-25T01:47:32;10.75;;;4.40;;
43248;SDS011;29216;51.248;6.808;2023-04-25T01:49:59;11.68;;;4.47;;
43248;SDS011;29216;51.248;6.808;2023-04-25T01:52:25;14.88;;;5.35;;
43248;SDS011;29216;51.248;6.808;2023-04-25T01:54:51;12.68;;;4.55;;
43248;SDS011;29216;51.248;6.808;2023-04-25T01:57:18;10.50;;;4.50;;
43248;SDS011;29216;51.248;6.808;2023-04-25T01:59:44;11.75;;;4.30;;
43248;SDS011;29216;51.248;6.808;2023-04-25T02:02:11;8.77;;;4.22;;
43248;SDS011;29216;51.248;6.808;2023-04-25T02:04:37;8.75;;;4.30;;
43248;SDS011;29216;51.248;6.808;2023-04-25T02:07:03;7.65;;;4.35;;
43248;SDS011;29216;51.248;6.808;2023-04-25T02:09:29;9.70;;;4.20;;
43248;SDS011;29216;51.248;6.808;2023-04-25T02:11:55;9.90;;;4.18;;
43248;SDS011;29216;51.248;6.808;2023-04-25T02:14:21;10.18;;;4.22;;
43248;SDS011;29216;51.248;6.808;2023-04-25T02:16:47;11.32;;;4.20;;
43248;SDS011;29216;51.248;6.808;2023-04-25T02:19:14;11.80;;;3.97;;
43248;SDS011;29216;51.248;6.808;2023-04-25T02:21:40;6.85;;;4.03;;
43248;SDS011;29216;51.248;6.808;2023-04-25T02:24:06;8.75;;;4.35;;
43248;SDS011;29216;51.248;6.808;2023-04-25T02:26:32;6.13;;;4.15;;
43248;SDS011;29216;51.248;6.808;2023-04-25T02:28:58;6.40;;;3.88;;
43248;SDS011;29216;51.248;6.808;2023-04-25T02:31:24;9.75;;;3.60;;
43248;SDS011;29216;51.248;6.808;2023-04-25T02:33:51;5.03;;;2.90;;
43248;SDS011;29216;51.248;6.808;2023-04-25T02:36:17;10.30;;;3.40;;
43248;SDS011;29216;51.248;6.808;2023-04-25T02:38:43;6.32;;;3.40;;
43248;SDS011;29216;51.248;6.808;2023-04-25T02:41:09;7.45;;;3.53;;
43248;SDS011;29216;51.248;6.808;2023-04-25T02:43:35;10.10;;;3.60;;
43248;SDS011;29216;51.248;6.808;2023-04-25T02:46:01;10.48;;;3.15;;
43248;SDS011;29216;51.248;6.808;2023-04-25T02:48:26;5.55;;;3.00;;
43248;SDS011;29216;51.248;6.808;2023-04-25T02:50:54;7.93;;;3.75;;
43248;SDS011;29216;51.248;6.808;2023-04-25T02:53:20;9.48;;;3.83;;
43248;SDS011;29216;51.248;6.808;2023-04-25T02:55:46;7.82;;;3.90;;
43248;SDS011;29216;51.248;6.808;2023-04-25T02:58:12;6.50;;;3.28;;
43248;SDS011;29216;51.248;6.808;2023-04-25T03:00:38;7.55;;;3.83;;
43248;SDS011;29216;51.248;6.808;2023-04-25T03:03:04;7.57;;;3.80;;
43248;SDS011;29216;51.248;6.808;2023-04-25T03:05:30;10.70;;;3.90;;
43248;SDS011;29216;51.248;6.808;2023-04-25T03:07:56;10.90;;;5.25;;
43248;SDS011;29216;51.248;6.808;2023-04-25T03:10:22;8.90;;;4.65;;
43248;SDS011;29216;51.248;6.808;2023-04-25T03:12:48;15.68;;;4.45;;
43248;SDS011;29216;51.248;6.808;2023-04-25T03:15:14;10.77;;;4.10;;
43248;SDS011;29216;51.248;6.808;2023-04-25T03:17:41;16.55;;;4.57;;
43248;SDS011;29216;51.248;6.808;2023-04-25T03:20:07;16.58;;;5.07;;
43248;SDS011;29216;51.248;6.808;2023-04-25T03:22:33;10.90;;;4.70;;
43248;SDS011;29216;51.248;6.808;2023-04-25T03:24:59;12.30;;;4.25;;
43248;SDS011;29216;51.248;6.808;2023-04-25T03:27:25;15.95;;;5.38;;
43248;SDS011;29216;51.248;6.808;2023-04-25T03:29:51;9.35;;;4.43;;
43248;SDS011;29216;51.248;6.808;2023-04-25T03:32:17;11.13;;;5.78;;
43248;SDS011;29216;51.248;6.808;2023-04-25T03:34:43;12.73;;;4.75;;
43248;SDS011;29216;51.248;6.808;2023-04-25T03:37:09;11.18;;;4.97;;
43248;SDS011;29216;51.248;6.808;2023-04-25T03:39:35;12.88;;;4.90;;
43248;SDS011;29216;51.248;6.808;2023-04-25T03:42:02;12.25;;;4.97;;
43248;SDS011;29216;51.248;6.808;2023-04-25T03:44:28;22.20;;;5.93;;
43248;SDS011;29216;51.248;6.808;2023-04-25T03:46:54;11.65;;;6.20;;
43248;SDS011;29216;51.248;6.808;2023-04-25T03:49:20;14.43;;;5.28;;
43248;SDS011;29216;51.248;6.808;2023-04-25T03:51:46;15.48;;;6.10;;
43248;SDS011;29216;51.248;6.808;2023-04-25T03:54:12;14.57;;;5.70;;
43248;SDS011;29216;51.248;6.808;2023-04-25T03:56:38;13.68;;;5.68;;
43248;SDS011;29216;51.248;6.808;2023-04-25T03:59:04;18.25;;;5.93;;
43248;SDS011;29216;51.248;6.808;2023-04-25T04:01:30;13.52;;;5.60;;
43248;SDS011;29216;51.248;6.808;2023-04-25T04:03:56;13.27;;;5.20;;
43248;SDS011;29216;51.248;6.808;2023-04-25T04:06:22;15.02;;;5.78;;
43248;SDS011;29216;51.248;6.808;2023-04-25T04:08:48;12.13;;;6.07;;
43248;SDS011;29216;51.248;6.808;2023-04-25T04:11:14;14.00;;;5.90;;
43248;SDS011;29216;51.248;6.808;2023-04-25T04:13:40;15.32;;;5.22;;
43248;SDS011;29216;51.248;6.808;2023-04-25T04:16:06;17.13;;;5.82;;
43248;SDS011;29216;51.248;6.808;2023-04-25T04:18:32;15.00;;;5.60;;
43248;SDS011;29216;51.248;6.808;2023-04-25T04:20:58;17.63;;;5.85;;
43248;SDS011;29216;51.248;6.808;2023-04-25T04:23:24;17.00;;;6.03;;
43248;SDS011;29216;51.248;6.808;2023-04-25T04:25:52;14.18;;;5.82;;
43248;SDS011;29216;51.248;6.808;2023-04-25T04:28:19;16.75;;;6.40;;
43248;SDS011;29216;51.248;6.808;2023-04-25T04:30:45;15.05;;;5.80;;
43248;SDS011;29216;51.248;6.808;2023-04-25T04:33:12;12.02;;;5.72;;
43248;SDS011;29216;51.248;6.808;2023-04-25T04:35:38;14.93;;;5.88;;
43248;SDS011;29216;51.248;6.808;2023-04-25T04:38:04;11.10;;;5.03;;
43248;SDS011;29216;51.248;6.808;2023-04-25T04:40:30;15.93;;;5.63;;
43248;SDS011;29216;51.248;6.808;2023-04-25T04:42:57;16.92;;;5.72;;
43248;SDS011;29216;51.248;6.808;2023-04-25T04:45:25;16.60;;;5.35;;
43248;SDS011;29216;51.248;6.808;2023-04-25T04:47:52;22.33;;;5.70;;
43248;SDS011;29216;51.248;6.808;2023-04-25T04:50:20;16.63;;;5.70;;
43248;SDS011;29216;51.248;6.808;2023-04-25T04:52:46;16.80;;;5.78;;
43248;SDS011;29216;51.248;6.808;2023-04-25T04:55:12;16.10;;;5.43;;
43248;SDS011;29216;51.248;6.808;2023-04-25T04:57:38;20.70;;;6.88;;
43248;SDS011;29216;51.248;6.808;2023-04-25T05:00:05;17.42;;;6.07;;
43248;SDS011;29216;51.248;6.808;2023-04-25T05:02:35;16.27;;;6.50;;
43248;SDS011;29216;51.248;6.808;2023-04-25T05:05:01;21.17;;;6.85;;
43248;SDS011;29216;51.248;6.808;2023-04-25T05:07:27;11.45;;;5.28;;
43248;SDS011;29216;51.248;6.808;2023-04-25T05:09:53;16.83;;;6.22;;
43248;SDS011;29216;51.248;6.808;2023-04-25T05:12:19;20.40;;;5.80;;
43248;SDS011;29216;51.248;6.808;2023-04-25T05:14:45;14.57;;;5.03;;
43248;SDS011;29216;51.248;6.808;2023-04-25T05:17:11;16.27;;;5.28;;
43248;SDS011;29216;51.248;6.808;2023-04-25T05:19:39;21.88;;;5.40;;
43248;SDS011;29216;51.248;6.808;2023-04-25T05:22:05;15.60;;;5.60;;
43248;SDS011;29216;51.248;6.808;2023-04-25T05:24:31;14.57;;;4.90;;
43248;SDS011;29216;51.248;6.808;2023-04-25T05:26:57;11.38;;;4.72;;
43248;SDS011;29216;51.248;6.808;2023-04-25T05:29:23;13.00;;;5.45;;
43248;SDS011;29216;51.248;6.808;2023-04-25T05:31:49;10.95;;;5.30;;
43248;SDS011;29216;51.248;6.808;2023-04-25T05:34:15;13.27;;;4.40;;
43248;SDS011;29216;51.248;6.808;2023-04-25T05:36:41;11.57;;;5.05;;
43248;SDS011;29216;51.248;6.808;2023-04-25T05:39:07;15.93;;;5.25;;
43248;SDS011;29216;51.248;6.808;2023-04-25T05:41:34;10.77;;;4.85;;
43248;SDS011;29216;51.248;6.808;2023-04-25T05:44:00;16.77;;;5.28;;
43248;SDS011;29216;51.248;6.808;2023-04-25T05:46:27;13.30;;;5.00;;
43248;SDS011;29216;51.248;6.808;2023-04-25T05:48:53;16.55;;;4.63;;
43248;SDS011;29216;51.248;6.808;2023-04-25T05:51:19;20.42;;;5.68;;
43248;SDS011;29216;51.248;6.808;2023-04-25T05:53:45;13.20;;;4.78;;
43248;SDS011;29216;51.248;6.808;2023-04-25T05:56:11;15.23;;;5.40;;
43248;SDS011;29216;51.248;6.808;2023-04-25T05:58:38;14.63;;;4.40;;
43248;SDS011;29216;51.248;6.808;2023-04-25T06:01:04;11.98;;;4.43;;
43248;SDS011;29216;51.248;6.808;2023-04-25T06:03:30;13.52;;;4.07;;
43248;SDS011;29216;51.248;6.808;2023-04-25T06:05:56;15.10;;;4.53;;
43248;SDS011;29216;51.248;6.808;2023-04-25T06:08:22;12.85;;;4.93;;
43248;SDS011;29216;51.248;6.808;2023-04-25T06:10:48;11.13;;;4.50;;
43248;SDS011;29216;51.248;6.808;2023-04-25T06:13:14;12.93;;;4.50;;
43248;SDS011;29216;51.248;6.808;2023-04-25T06:15:40;14.07;;;4.40;;
43248;SDS011;29216;51.248;6.808;2023-04-25T06:18:06;13.77;;;4.43;;
43248;SDS011;29216;51.248;6.808;2023-04-25T06:20:32;14.43;;;4.43;;
43248;SDS011;29216;51.248;6.808;2023-04-25T06:22:58;8.43;;;3.95;;
43248;SDS011;29216;51.248;6.808;2023-04-25T06:25:24;16.42;;;4.43;;
43248;SDS011;29216;51.248;6.808;2023-04-25T06:27:50;13.23;;;3.97;;
43248;SDS011;29216;51.248;6.808;2023-04-25T06:30:16;16.08;;;4.40;;
43248;SDS011;29216;51.248;6.808;2023-04-25T06:32:47;16.67;;;4.53;;
43248;SDS011;29216;51.248;6.808;2023-04-25T06:35:13;17.15;;;5.38;;
43248;SDS011;29216;51.248;6.808;2023-04-25T06:37:39;16.70;;;4.50;;
43248;SDS011;29216;51.248;6.808;2023-04-25T06:40:08;14.25;;;4.25;;
43248;SDS011;29216;51.248;6.808;2023-04-25T06:42:34;15.40;;;4.70;;
43248;SDS011;29216;51.248;6.808;2023-04-25T06:45:00;15.63;;;5.28;;
43248;SDS011;29216;51.248;6.808;2023-04-25T06:47:26;13.07;;;4.63;;
43248;SDS011;29216;51.248;6.808;2023-04-25T06:49:52;13.38;;;4.70;;
43248;SDS011;29216;51.248;6.808;2023-04-25T06:52:18;14.57;;;4.68;;
43248;SDS011;29216;51.248;6.808;2023-04-25T06:54:44;11.75;;;4.57;;
43248;SDS011;29216;51.248;6.808;2023-04-25T06:57:10;12.13;;;3.75;;
43248;SDS011;29216;51.248;6.808;2023-04-25T06:59:36;12.48;;;4.28;;
43248;SDS011;29216;51.248;6.808;2023-04-25T07:02:02;10.82;;;3.92;;
43248;SDS011;29216;51.248;6.808;2023-04-25T07:04:28;9.75;;;3.63;;
43248;SDS011;29216;51.248;6.808;2023-04-25T07:06:55;10.50;;;4.05;;
43248;SDS011;29216;51.248;6.808;2023-04-25T07:09:21;14.18;;;5.18;;
43248;SDS011;29216;51.248;6.808;2023-04-25T07:11:48;13.48;;;4.75;;
43248;SDS011;29216;51.248;6.808;2023-04-25T07:14:14;7.72;;;3.78;;
43248;SDS011;29216;51.248;6.808;2023-04-25T07:16:40;13.60;;;3.38;;
43248;SDS011;29216;51.248;6.808;2023-04-25T07:19:06;7.97;;;3.30;;
43248;SDS011;29216;51.248;6.808;2023-04-25T07:21:32;9.57;;;3.58;;
43248;SDS011;29216;51.248;6.808;2023-04-25T07:23:59;10.48;;;3.67;;
43248;SDS011;29216;51.248;6.808;2023-04-25T07:26:25;11.00;;;2.95;;
43248;SDS011;29216;51.248;6.808;2023-04-25T07:28:53;10.80;;;3.38;;
43248;SDS011;29216;51.248;6.808;2023-04-25T07:31:19;10.52;;;3.10;;
43248;SDS011;29216;51.248;6.808;2023-04-25T07:33:45;11.90;;;3.15;;
43248;SDS011;29216;51.248;6.808;2023-04-25T07:36:12;10.02;;;3.42;;
43248;SDS011;29216;51.248;6.808;2023-04-25T07:38:38;11.68;;;3.72;;
43248;SDS011;29216;51.248;6.808;2023-04-25T07:41:04;11.98;;;3.72;;
43248;SDS011;29216;51.248;6.808;2023-04-25T07:43:30;10.30;;;4.10;;
43248;SDS011;29216;51.248;6.808;2023-04-25T07:45:56;9.02;;;3.65;;
43248;SDS011;29216;51.248;6.808;2023-04-25T07:48:22;13.57;;;3.88;;
43248;SDS011;29216;51.248;6.808;2023-04-25T07:50:48;10.35;;;3.33;;
43248;SDS011;29216;51.248;6.808;2023-04-25T07:53:15;15.55;;;4.10;;
43248;SDS011;29216;51.248;6.808;2023-04-25T07:55:41;10.68;;;3.85;;
43248;SDS011;29216;51.248;6.808;2023-04-25T07:58:07;7.50;;;2.72;;
43248;SDS011;29216;51.248;6.808;2023-04-25T08:00:33;8.00;;;2.72;;
43248;SDS011;29216;51.248;6.808;2023-04-25T08:02:59;6.65;;;2.70;;
43248;SDS011;29216;51.248;6.808;2023-04-25T08:05:25;9.80;;;3.50;;
43248;SDS011;29216;51.248;6.808;2023-04-25T08:07:51;12.00;;;4.10;;
43248;SDS011;29216;51.248;6.808;2023-04-25T08:10:17;11.40;;;4.20;;
43248;SDS011;29216;51.248;6.808;2023-04-25T08:12:46;7.03;;;3.55;;
43248;SDS011;29216;51.248;6.808;2023-04-25T08:15:12;11.20;;;4.53;;
43248;SDS011;29216;51.248;6.808;2023-04-25T08:17:38;8.60;;;3.50;;
43248;SDS011;29216;51.248;6.808;2023-04-25T08:20:05;11.32;;;3.70;;
43248;SDS011;29216;51.248;6.808;2023-04-25T08:22:31;11.50;;;3.50;;
43248;SDS011;29216;51.248;6.808;2023-04-25T08:24:58;9.32;;;3.30;;
43248;SDS011;29216;51.248;6.808;2023-04-25T08:27:24;10.32;;;3.10;;
43248;SDS011;29216;51.248;6.808;2023-04-25T08:29:50;11.27;;;3.10;;
43248;SDS011;29216;51.248;6.808;2023-04-25T08:32:17;13.75;;;3.78;;
43248;SDS011;29216;51.248;6.808;2023-04-25T08:34:43;11.18;;;3.80;;
43248;SDS011;29216;51.248;6.808;2023-04-25T08:37:09;9.20;;;3.40;;
43248;SDS011;29216;51.248;6.808;2023-04-25T08:39:38;7.13;;;2.95;;
43248;SDS011;29216;51.248;6.808;2023-04-25T08:42:05;11.27;;;3.67;;
43248;SDS011;29216;51.248;6.808;2023-04-25T08:44:35;11.38;;;3.55;;
43248;SDS011;29216;51.248;6.808;2023-04-25T08:47:04;8.98;;;3.40;;
43248;SDS011;29216;51.248;6.808;2023-04-25T08:49:33;10.32;;;3.47;;
43248;SDS011;29216;51.248;6.808;2023-04-25T08:52:00;7.40;;;3.60;;
43248;SDS011;29216;51.248;6.808;2023-04-25T08:54:27;9.38;;;3.50;;
43248;SDS011;29216;51.248;6.808;2023-04-25T08:56:55;10.90;;;4.00;;
43248;SDS011;29216;51.248;6.808;2023-04-25T08:59:22;8.93;;;3.63;;
43248;SDS011;29216;51.248;6.808;2023-04-25T09:01:49;14.98;;;5.53;;
43248;SDS011;29216;51.248;6.808;2023-04-25T09:04:15;15.95;;;5.10;;
43248;SDS011;29216;51.248;6.808;2023-04-25T09:06:41;11.13;;;4.07;;
43248;SDS011;29216;51.248;6.808;2023-04-25T09:09:07;8.45;;;3.05;;
43248;SDS011;29216;51.248;6.808;2023-04-25T09:11:35;11.65;;;3.47;;
43248;SDS011;29216;51.248;6.808;2023-04-25T09:14:20;9.23;;;3.20;;
43248;SDS011;29216;51.248;6.808;2023-04-25T09:16:56;9.50;;;3.13;;
43248;SDS011;29216;51.248;6.808;2023-04-25T09:19:28;8.15;;;3.35;;
43248;SDS011;29216;51.248;6.808;2023-04-25T09:21:55;9.25;;;3.20;;
43248;SDS011;29216;51.248;6.808;2023-04-25T09:24:37;9.90;;;3.13;;
43248;SDS011;29216;51.248;6.808;2023-04-25T09:27:07;9.15;;;3.30;;
43248;SDS011;29216;51.248;6.808;2023-04-25T09:29:35;12.43;;;4.35;;
43248;SDS011;29216;51.248;6.808;2023-04-25T09:32:21;10.00;;;3.50;;
43248;SDS011;29216;51.248;6.808;2023-04-25T09:34:48;7.57;;;2.78;;
43248;SDS011;29216;51.248;6.808;2023-04-25T09:39:44;7.78;;;3.05;;
43248;SDS011;29216;51.248;6.808;2023-04-25T09:42:14;7.22;;;2.67;;
43248;SDS011;29216;51.248;6.808;2023-04-25T09:44:44;6.78;;;3.03;;
43248;SDS011;29216;51.248;6.808;2023-04-25T09:47:11;8.68;;;2.50;;
43248;SDS011;29216;51.248;6.808;2023-04-25T09:49:41;6.57;;;2.78;;
43248;SDS011;29216;51.248;6.808;2023-04-25T09:52:07;10.50;;;3.47;;
43248;SDS011;29216;51.248;6.808;2023-04-25T09:54:33;7.30;;;3.00;;
43248;SDS011;29216;51.248;6.808;2023-04-25T09:57:03;8.60;;;2.70;;
43248;SDS011;29216;51.248;6.808;2023-04-25T09:59:32;6.20;;;2.65;;
43248;SDS011;29216;51.248;6.808;2023-04-25T10:02:00;9.35;;;3.40;;
43248;SDS011;29216;51.248;6.808;2023-04-25T10:04:27;9.02;;;2.72;;
43248;SDS011;29216;51.248;6.808;2023-04-25T10:06:53;6.85;;;2.40;;
43248;SDS011;29216;51.248;6.808;2023-04-25T10:09:20;8.32;;;3.05;;
43248;SDS011;29216;51.248;6.808;2023-04-25T10:11:48;8.68;;;3.20;;
43248;SDS011;29216;51.248;6.808;2023-04-25T10:14:14;10.38;;;2.67;;
43248;SDS011;29216;51.248;6.808;2023-04-25T10:16:40;8.07;;;2.45;;
43248;SDS011;29216;51.248;6.808;2023-04-25T10:19:07;7.82;;;3.17;;
43248;SDS011;29216;51.248;6.808;2023-04-25T10:21:33;6.50;;;2.30;;
43248;SDS011;29216;51.248;6.808;2023-04-25T10:24:00;11.35;;;2.83;;
43248;SDS011;29216;51.248;6.808;2023-04-25T10:26:26;5.15;;;2.55;;
43248;SDS011;29216;51.248;6.808;2023-04-25T10:28:59;9.13;;;2.90;;
43248;SDS011;29216;51.248;6.808;2023-04-25T10:31:26;6.38;;;2.20;;
43248;SDS011;29216;51.248;6.808;2023-04-25T10:33:52;5.68;;;2.38;;
43248;SDS011;29216;51.248;6.808;2023-04-25T10:36:19;8.38;;;2.33;;
43248;SDS011;29216;51.248;6.808;2023-04-25T10:38:49;4.82;;;1.95;;
43248;SDS011;29216;51.248;6.808;2023-04-25T10:41:19;5.55;;;2.80;;
43248;SDS011;29216;51.248;6.808;2023-04-25T10:43:46;4.72;;;2.00;;
43248;SDS011;29216;51.248;6.808;2023-04-25T10:46:13;4.60;;;2.15;;
43248;SDS011;29216;51.248;6.808;2023-04-25T10:48:43;6.03;;;2.15;;
43248;SDS011;29216;51.248;6.808;2023-04-25T10:51:11;4.28;;;1.95;;
43248;SDS011;29216;51.248;6.808;2023-04-25T10:53:37;5.50;;;2.50;;
43248;SDS011;29216;51.248;6.808;2023-04-25T10:56:19;2.55;;;1.70;;
43248;SDS011;29216;51.248;6.808;2023-04-25T10:58:46;4.10;;;1.92;;
43248;SDS011;29216;51.248;6.808;2023-04-25T11:01:15;4.38;;;1.77;;
43248;SDS011;29216;51.248;6.808;2023-04-25T11:03:45;4.65;;;2.05;;
43248;SDS011;29216;51.248;6.808;2023-04-25T11:06:20;7.85;;;2.20;;
43248;SDS011;29216;51.248;6.808;2023-04-25T11:08:48;5.45;;;2.22;;
43248;SDS011;29216;51.248;6.808;2023-04-25T11:11:15;3.17;;;1.83;;
43248;SDS011;29216;51.248;6.808;2023-04-25T11:13:41;5.10;;;2.13;;
43248;SDS011;29216;51.248;6.808;2023-04-25T11:16:07;10.80;;;3.13;;
43248;SDS011;29216;51.248;6.808;2023-04-25T11:18:33;6.00;;;2.25;;
43248;SDS011;29216;51.248;6.808;2023-04-25T11:20:59;8.35;;;2.88;;
43248;SDS011;29216;51.248;6.808;2023-04-25T11:23:26;5.63;;;2.45;;
43248;SDS011;29216;51.248;6.808;2023-04-25T11:25:52;4.40;;;1.90;;
43248;SDS011;29216;51.248;6.808;2023-04-25T11:28:21;6.15;;;2.00;;
43248;SDS011;29216;51.248;6.808;2023-04-25T11:30:50;7.03;;;2.00;;
43248;SDS011;29216;51.248;6.808;2023-04-25T11:33:17;8.13;;;2.20;;
43248;SDS011;29216;51.248;6.808;2023-04-25T11:35:43;7.57;;;1.98;;
43248;SDS011;29216;51.248;6.808;2023-04-25T11:38:09;6.43;;;2.08;;
43248;SDS011;29216;51.248;6.808;2023-04-25T11:40:35;4.63;;;2.15;;
43248;SDS011;29216;51.248;6.808;2023-04-25T11:43:01;7.10;;;2.90;;
43248;SDS011;29216;51.248;6.808;2023-04-25T11:45:27;7.75;;;2.40;;
43248;SDS011;29216;51.248;6.808;2023-04-25T11:47:55;4.80;;;2.08;;
43248;SDS011;29216;51.248;6.808;2023-04-25T11:50:21;5.90;;;2.40;;
43248;SDS011;29216;51.248;6.808;2023-04-25T11:52:47;5.05;;;2.20;;
43248;SDS011;29216;51.248;6.808;2023-04-25T11:55:14;7.53;;;2.70;;
43248;SDS011;29216;51.248;6.808;2023-04-25T11:57:41;7.28;;;2.13;;
43248;SDS011;29216;51.248;6.808;2023-04-25T12:02:41;6.93;;;2.28;;
43248;SDS011;29216;51.248;6.808;2023-04-25T12:05:08;5.25;;;2.78;;
43248;SDS011;29216;51.248;6.808;2023-04-25T12:07:34;5.88;;;2.30;;
43248;SDS011;29216;51.248;6.808;2023-04-25T12:10:04;8.65;;;2.72;;
43248;SDS011;29216;51.248;6.808;2023-04-25T12:12:35;8.05;;;2.70;;
43248;SDS011;29216;51.248;6.808;2023-04-25T12:15:08;6.20;;;2.40;;
43248;SDS011;29216;51.248;6.808;2023-04-25T12:17:34;9.30;;;3.03;;
43248;SDS011;29216;51.248;6.808;2023-04-25T12:20:07;11.23;;;3.13;;
43248;SDS011;29216;51.248;6.808;2023-04-25T12:22:33;11.45;;;3.33;;
43248;SDS011;29216;51.248;6.808;2023-04-25T12:24:59;13.90;;;4.32;;
43248;SDS011;29216;51.248;6.808;2023-04-25T12:27:28;9.85;;;3.42;;
43248;SDS011;29216;51.248;6.808;2023-04-25T12:29:56;7.93;;;2.95;;
43248;SDS011;29216;51.248;6.808;2023-04-25T12:32:23;9.55;;;2.97;;
43248;SDS011;29216;51.248;6.808;2023-04-25T12:34:50;12.90;;;3.08;;
43248;SDS011;29216;51.248;6.808;2023-04-25T12:37:16;7.10;;;3.00;;
43248;SDS011;29216;51.248;6.808;2023-04-25T12:39:42;10.07;;;3.35;;
43248;SDS011;29216;51.248;6.808;2023-04-25T12:42:08;16.02;;;3.72;;
43248;SDS011;29216;51.248;6.808;2023-04-25T12:44:36;9.65;;;2.97;;
43248;SDS011;29216;51.248;6.808;2023-04-25T12:47:03;10.90;;;2.95;;
43248;SDS011;29216;51.248;6.808;2023-04-25T12:49:30;13.43;;;3.08;;
43248;SDS011;29216;51.248;6.808;2023-04-25T12:51:56;10.75;;;2.92;;
43248;SDS011;29216;51.248;6.808;2023-04-25T12:54:22;15.73;;;3.03;;
43248;SDS011;29216;51.248;6.808;2023-04-25T12:56:48;7.57;;;3.30;;
43248;SDS011;29216;51.248;6.808;2023-04-25T12:59:15;11.10;;;2.80;;
43248;SDS011;29216;51.248;6.808;2023-04-25T13:01:41;7.80;;;2.70;;
43248;SDS011;29216;51.248;6.808;2023-04-25T13:04:07;11.48;;;2.90;;
43248;SDS011;29216;51.248;6.808;2023-04-25T13:06:33;6.88;;;2.72;;
43248;SDS011;29216;51.248;6.808;2023-04-25T13:08:59;8.38;;;2.80;;
43248;SDS011;29216;51.248;6.808;2023-04-25T13:11:25;4.47;;;2.35;;
43248;SDS011;29216;51.248;6.808;2023-04-25T13:13:51;7.18;;;2.47;;
43248;SDS011;29216;51.248;6.808;2023-04-25T13:16:17;7.72;;;2.30;;
43248;SDS011;29216;51.248;6.808;2023-04-25T13:18:45;6.18;;;2.33;;
43248;SDS011;29216;51.248;6.808;2023-04-25T13:21:11;5.65;;;2.40;;
43248;SDS011;29216;51.248;6.808;2023-04-25T13:23:38;4.07;;;2.05;;
43248;SDS011;29216;51.248;6.808;2023-04-25T13:26:05;4.18;;;2.08;;
43248;SDS011;29216;51.248;6.808;2023-04-25T13:28:31;5.45;;;3.53;;
43248;SDS011;29216;51.248;6.808;2023-04-25T13:30:57;6.70;;;2.20;;
43248;SDS011;29216;51.248;6.808;2023-04-25T13:33:24;5.47;;;2.17;;
43248;SDS011;29216;51.248;6.808;2023-04-25T13:35:50;6.13;;;2.45;;
43248;SDS011;29216;51.248;6.808;2023-04-25T13:38:21;8.05;;;2.50;;
43248;SDS011;29216;51.248;6.808;2023-04-25T13:40:47;4.53;;;1.90;;
43248;SDS011;29216;51.248;6.808;2023-04-25T13:43:13;4.40;;;2.28;;
43248;SDS011;29216;51.248;6.808;2023-04-25T13:45:39;9.07;;;2.40;;
43248;SDS011;29216;51.248;6.808;2023-04-25T13:48:06;6.95;;;2.30;;
43248;SDS011;29216;51.248;6.808;2023-04-25T13:50:32;4.07;;;2.22;;
43248;SDS011;29216;51.248;6.808;2023-04-25T13:52:58;4.65;;;1.90;;
43248;SDS011;29216;51.248;6.808;2023-04-25T13:55:24;5.82;;;1.98;;
43248;SDS011;29216;51.248;6.808;2023-04-25T13:57:50;3.72;;;2.00;;
43248;SDS011;29216;51.248;6.808;2023-04-25T14:00:16;5.00;;;2.25;;
43248;SDS011;29216;51.248;6.808;2023-04-25T14:02:42;3.53;;;1.95;;
43248;SDS011;29216;51.248;6.808;2023-04-25T14:05:08;6.88;;;2.25;;
43248;SDS011;29216;51.248;6.808;2023-04-25T14:07:35;6.55;;;2.13;;
43248;SDS011;29216;51.248;6.808;2023-04-25T14:10:01;4.85;;;2.22;;
43248;SDS011;29216;51.248;6.808;2023-04-25T14:12:27;6.03;;;2.65;;
43248;SDS011;29216;51.248;6.808;2023-04-25T14:14:53;5.07;;;2.10;;
43248;SDS011;29216;51.248;6.808;2023-04-25T14:17:19;4.72;;;2.40;;
43248;SDS011;29216;51.248;6.808;2023-04-25T14:19:45;5.47;;;2.22;;
43248;SDS011;29216;51.248;6.808;2023-04-25T14:22:13;4.82;;;2.47;;
43248;SDS011;29216;51.248;6.808;2023-04-25T14:24:40;5.47;;;2.25;;
43248;SDS011;29216;51.248;6.808;2023-04-25T14:27:05;5.43;;;2.47;;
43248;SDS011;29216;51.248;6.808;2023-04-25T14:29:31;6.80;;;2.35;;
43248;SDS011;29216;51.248;6.808;2023-04-25T14:31:57;5.10;;;2.15;;
43248;SDS011;29216;51.248;6.808;2023-04-25T14:34:24;4.70;;;2.10;;
43248;SDS011;29216;51.248;6.808;2023-04-25T14:36:51;5.57;;;2.05;;
43248;SDS011;29216;51.248;6.808;2023-04-25T14:39:17;4.70;;;2.25;;
43248;SDS011;29216;51.248;6.808;2023-04-25T14:41:43;4.95;;;2.20;;
43248;SDS011;29216;51.248;6.808;2023-04-25T14:44:09;7.53;;;2.42;;